sensor_id;sensor_type;location;lat;lon;timestamp;P1;durP1;ratioP1;P2;durP2;ratioP2
56830;SDS011;42713;42.676;23.352;2023-06-22T00:01:51;16.20;;;8.70;;
56830;SDS011;42713;42.676;23.352;2023-06-22T00:04:17;12.27;;;8.52;;
56830;SDS011;42713;42.676;23.352;2023-06-22T00:06:42;16.08;;;8.88;;
56830;SDS011;42713;42.676;23.352;2023-06-22T00:09:07;14.20;;;7.97;;
56830;SDS011;42713;42.676;23.352;2023-06-22T00:11:34;12.35;;;8.35;;
56830;SDS011;42713;42.676;23.352;2023-06-22T00:14:00;17.73;;;8.63;;
56830;SDS011;42713;42.676;23.352;2023-06-22T00:16:25;17.75;;;9.27;;
56830;SDS011;42713;42.676;23.352;2023-06-22T00:18:50;13.88;;;8.50;;
56830;SDS011;42713;42.676;23.352;2023-06-22T00:21:16;15.85;;;8.20;;
56830;SDS011;42713;42.676;23.352;2023-06-22T00:23:42;14.07;;;8.55;;
56830;SDS011;42713;42.676;23.352;2023-06-22T00:26:08;12.80;;;8.70;;
56830;SDS011;42713;42.676;23.352;2023-06-22T00:28:34;15.93;;;9.23;;
56830;SDS011;42713;42.676;23.352;2023-06-22T00:30:59;17.50;;;9.15;;
56830;SDS011;42713;42.676;23.352;2023-06-22T00:33:25;12.82;;;8.80;;
56830;SDS011;42713;42.676;23.352;2023-06-22T00:35:51;13.70;;;8.95;;
56830;SDS011;42713;42.676;23.352;2023-06-22T00:38:18;12.98;;;9.10;;
56830;SDS011;42713;42.676;23.352;2023-06-22T00:40:44;13.23;;;8.43;;
56830;SDS011;42713;42.676;23.352;2023-06-22T00:43:10;16.60;;;8.55;;
56830;SDS011;42713;42.676;23.352;2023-06-22T00:45:35;15.45;;;9.18;;
56830;SDS011;42713;42.676;23.352;2023-06-22T00:48:01;16.10;;;9.23;;
56830;SDS011;42713;42.676;23.352;2023-06-22T00:50:29;13.70;;;8.50;;
56830;SDS011;42713;42.676;23.352;2023-06-22T00:52:59;15.50;;;9.35;;
56830;SDS011;42713;42.676;23.352;2023-06-22T00:55:26;14.63;;;8.70;;
56830;SDS011;42713;42.676;23.352;2023-06-22T00:57:53;13.23;;;8.48;;
56830;SDS011;42713;42.676;23.352;2023-06-22T01:00:21;15.52;;;8.68;;
56830;SDS011;42713;42.676;23.352;2023-06-22T01:02:49;15.00;;;9.60;;
56830;SDS011;42713;42.676;23.352;2023-06-22T01:05:19;13.43;;;9.02;;
56830;SDS011;42713;42.676;23.352;2023-06-22T01:08:08;14.23;;;8.90;;
56830;SDS011;42713;42.676;23.352;2023-06-22T01:10:52;15.43;;;8.98;;
56830;SDS011;42713;42.676;23.352;2023-06-22T01:15:55;16.27;;;9.38;;
56830;SDS011;42713;42.676;23.352;2023-06-22T01:18:26;17.10;;;10.07;;
56830;SDS011;42713;42.676;23.352;2023-06-22T01:20:55;16.65;;;9.85;;
56830;SDS011;42713;42.676;23.352;2023-06-22T01:23:39;15.67;;;8.77;;
56830;SDS011;42713;42.676;23.352;2023-06-22T01:27:01;13.10;;;8.40;;
56830;SDS011;42713;42.676;23.352;2023-06-22T01:29:46;12.35;;;8.32;;
56830;SDS011;42713;42.676;23.352;2023-06-22T01:32:15;15.52;;;9.30;;
56830;SDS011;42713;42.676;23.352;2023-06-22T01:34:41;15.20;;;8.93;;
56830;SDS011;42713;42.676;23.352;2023-06-22T01:37:07;15.55;;;9.65;;
56830;SDS011;42713;42.676;23.352;2023-06-22T01:39:33;14.52;;;9.40;;
56830;SDS011;42713;42.676;23.352;2023-06-22T01:42:00;17.00;;;9.13;;
56830;SDS011;42713;42.676;23.352;2023-06-22T01:44:27;17.70;;;9.35;;
56830;SDS011;42713;42.676;23.352;2023-06-22T01:46:53;15.38;;;9.00;;
56830;SDS011;42713;42.676;23.352;2023-06-22T01:49:20;15.98;;;9.25;;
56830;SDS011;42713;42.676;23.352;2023-06-22T01:51:45;13.50;;;8.30;;
56830;SDS011;42713;42.676;23.352;2023-06-22T01:54:11;14.70;;;8.77;;
56830;SDS011;42713;42.676;23.352;2023-06-22T01:56:37;11.48;;;7.72;;
56830;SDS011;42713;42.676;23.352;2023-06-22T01:59:05;12.27;;;8.27;;
56830;SDS011;42713;42.676;23.352;2023-06-22T02:02:21;13.88;;;8.13;;
56830;SDS011;42713;42.676;23.352;2023-06-22T02:07:24;36.40;;;28.15;;
56830;SDS011;42713;42.676;23.352;2023-06-22T02:09:57;23.70;;;16.67;;
56830;SDS011;42713;42.676;23.352;2023-06-22T02:12:25;20.00;;;11.13;;
56830;SDS011;42713;42.676;23.352;2023-06-22T02:14:52;16.98;;;10.70;;
56830;SDS011;42713;42.676;23.352;2023-06-22T02:17:18;15.20;;;9.98;;
56830;SDS011;42713;42.676;23.352;2023-06-22T02:19:44;16.52;;;9.55;;
56830;SDS011;42713;42.676;23.352;2023-06-22T02:22:10;13.85;;;9.50;;
56830;SDS011;42713;42.676;23.352;2023-06-22T02:24:36;14.48;;;9.23;;
56830;SDS011;42713;42.676;23.352;2023-06-22T02:27:02;13.15;;;8.82;;
56830;SDS011;42713;42.676;23.352;2023-06-22T02:29:28;13.32;;;9.00;;
56830;SDS011;42713;42.676;23.352;2023-06-22T02:31:54;13.77;;;8.88;;
56830;SDS011;42713;42.676;23.352;2023-06-22T02:34:21;12.57;;;8.48;;
56830;SDS011;42713;42.676;23.352;2023-06-22T02:36:47;15.93;;;9.18;;
56830;SDS011;42713;42.676;23.352;2023-06-22T02:39:20;13.13;;;8.82;;
56830;SDS011;42713;42.676;23.352;2023-06-22T02:41:51;15.05;;;9.15;;
56830;SDS011;42713;42.676;23.352;2023-06-22T02:44:17;17.13;;;9.53;;
56830;SDS011;42713;42.676;23.352;2023-06-22T02:46:43;14.45;;;8.63;;
56830;SDS011;42713;42.676;23.352;2023-06-22T02:49:09;17.52;;;8.82;;
56830;SDS011;42713;42.676;23.352;2023-06-22T02:51:35;17.95;;;9.40;;
56830;SDS011;42713;42.676;23.352;2023-06-22T02:54:04;13.98;;;9.00;;
56830;SDS011;42713;42.676;23.352;2023-06-22T02:56:30;16.48;;;9.35;;
56830;SDS011;42713;42.676;23.352;2023-06-22T02:58:56;13.25;;;9.20;;
56830;SDS011;42713;42.676;23.352;2023-06-22T03:01:26;14.32;;;8.90;;
56830;SDS011;42713;42.676;23.352;2023-06-22T03:03:53;13.70;;;9.57;;
56830;SDS011;42713;42.676;23.352;2023-06-22T03:06:20;15.93;;;9.18;;
56830;SDS011;42713;42.676;23.352;2023-06-22T03:08:51;17.33;;;9.52;;
56830;SDS011;42713;42.676;23.352;2023-06-22T03:11:17;13.48;;;8.88;;
56830;SDS011;42713;42.676;23.352;2023-06-22T03:13:42;15.50;;;9.30;;
56830;SDS011;42713;42.676;23.352;2023-06-22T03:16:08;13.98;;;8.77;;
56830;SDS011;42713;42.676;23.352;2023-06-22T03:18:34;13.90;;;9.25;;
56830;SDS011;42713;42.676;23.352;2023-06-22T03:20:59;16.60;;;9.77;;
56830;SDS011;42713;42.676;23.352;2023-06-22T03:23:27;14.32;;;9.98;;
56830;SDS011;42713;42.676;23.352;2023-06-22T03:25:52;19.05;;;10.63;;
56830;SDS011;42713;42.676;23.352;2023-06-22T03:28:20;17.00;;;10.38;;
56830;SDS011;42713;42.676;23.352;2023-06-22T03:30:46;17.10;;;9.43;;
56830;SDS011;42713;42.676;23.352;2023-06-22T03:33:12;12.50;;;8.63;;
56830;SDS011;42713;42.676;23.352;2023-06-22T03:35:37;19.20;;;9.80;;
56830;SDS011;42713;42.676;23.352;2023-06-22T03:38:03;17.30;;;8.82;;
56830;SDS011;42713;42.676;23.352;2023-06-22T03:40:29;14.75;;;9.40;;
56830;SDS011;42713;42.676;23.352;2023-06-22T03:42:55;14.35;;;9.65;;
56830;SDS011;42713;42.676;23.352;2023-06-22T03:45:20;15.40;;;8.82;;
56830;SDS011;42713;42.676;23.352;2023-06-22T03:47:46;15.18;;;9.70;;
56830;SDS011;42713;42.676;23.352;2023-06-22T03:50:11;16.83;;;9.50;;
56830;SDS011;42713;42.676;23.352;2023-06-22T03:52:37;18.25;;;10.15;;
56830;SDS011;42713;42.676;23.352;2023-06-22T03:55:02;14.43;;;9.60;;
56830;SDS011;42713;42.676;23.352;2023-06-22T03:57:28;19.15;;;9.80;;
56830;SDS011;42713;42.676;23.352;2023-06-22T03:59:56;15.07;;;9.82;;
56830;SDS011;42713;42.676;23.352;2023-06-22T04:02:22;18.35;;;10.20;;
56830;SDS011;42713;42.676;23.352;2023-06-22T04:04:47;15.55;;;9.88;;
56830;SDS011;42713;42.676;23.352;2023-06-22T04:07:13;16.25;;;9.52;;
56830;SDS011;42713;42.676;23.352;2023-06-22T04:09:38;15.40;;;10.70;;
56830;SDS011;42713;42.676;23.352;2023-06-22T04:12:04;17.95;;;10.48;;
56830;SDS011;42713;42.676;23.352;2023-06-22T04:14:30;17.15;;;10.13;;
56830;SDS011;42713;42.676;23.352;2023-06-22T04:16:55;19.58;;;10.27;;
56830;SDS011;42713;42.676;23.352;2023-06-22T04:19:21;19.75;;;10.40;;
56830;SDS011;42713;42.676;23.352;2023-06-22T04:21:46;15.95;;;10.38;;
56830;SDS011;42713;42.676;23.352;2023-06-22T04:24:13;21.65;;;10.90;;
56830;SDS011;42713;42.676;23.352;2023-06-22T04:26:39;17.23;;;10.45;;
56830;SDS011;42713;42.676;23.352;2023-06-22T04:29:06;18.80;;;10.52;;
56830;SDS011;42713;42.676;23.352;2023-06-22T04:31:33;22.88;;;10.85;;
56830;SDS011;42713;42.676;23.352;2023-06-22T04:34:01;16.42;;;10.73;;
56830;SDS011;42713;42.676;23.352;2023-06-22T04:36:35;18.83;;;11.23;;
56830;SDS011;42713;42.676;23.352;2023-06-22T04:39:08;17.25;;;11.20;;
56830;SDS011;42713;42.676;23.352;2023-06-22T04:41:39;16.58;;;10.30;;
56830;SDS011;42713;42.676;23.352;2023-06-22T04:44:12;16.38;;;11.25;;
56830;SDS011;42713;42.676;23.352;2023-06-22T04:46:39;21.50;;;12.07;;
56830;SDS011;42713;42.676;23.352;2023-06-22T04:49:05;20.58;;;11.93;;
56830;SDS011;42713;42.676;23.352;2023-06-22T04:51:40;17.67;;;11.15;;
56830;SDS011;42713;42.676;23.352;2023-06-22T04:54:07;17.70;;;11.73;;
56830;SDS011;42713;42.676;23.352;2023-06-22T04:56:33;21.70;;;12.05;;
56830;SDS011;42713;42.676;23.352;2023-06-22T04:58:58;16.67;;;11.50;;
56830;SDS011;42713;42.676;23.352;2023-06-22T05:01:24;17.20;;;11.48;;
56830;SDS011;42713;42.676;23.352;2023-06-22T05:03:50;20.05;;;11.90;;
56830;SDS011;42713;42.676;23.352;2023-06-22T05:06:23;16.80;;;11.90;;
56830;SDS011;42713;42.676;23.352;2023-06-22T05:08:53;16.75;;;11.48;;
56830;SDS011;42713;42.676;23.352;2023-06-22T05:11:26;18.63;;;11.48;;
56830;SDS011;42713;42.676;23.352;2023-06-22T05:13:52;16.90;;;10.73;;
56830;SDS011;42713;42.676;23.352;2023-06-22T05:16:17;16.25;;;11.02;;
56830;SDS011;42713;42.676;23.352;2023-06-22T05:18:48;16.27;;;11.20;;
56830;SDS011;42713;42.676;23.352;2023-06-22T05:21:13;17.88;;;12.20;;
56830;SDS011;42713;42.676;23.352;2023-06-22T05:23:38;18.27;;;11.60;;
56830;SDS011;42713;42.676;23.352;2023-06-22T05:26:04;18.25;;;11.48;;
56830;SDS011;42713;42.676;23.352;2023-06-22T05:28:29;15.48;;;10.40;;
56830;SDS011;42713;42.676;23.352;2023-06-22T05:30:55;18.15;;;11.73;;
56830;SDS011;42713;42.676;23.352;2023-06-22T05:33:20;16.00;;;11.02;;
56830;SDS011;42713;42.676;23.352;2023-06-22T05:35:46;19.17;;;12.18;;
56830;SDS011;42713;42.676;23.352;2023-06-22T05:38:12;21.83;;;10.85;;
56830;SDS011;42713;42.676;23.352;2023-06-22T05:40:37;16.67;;;10.45;;
56830;SDS011;42713;42.676;23.352;2023-06-22T05:43:03;22.33;;;10.57;;
56830;SDS011;42713;42.676;23.352;2023-06-22T05:45:28;19.23;;;11.27;;
56830;SDS011;42713;42.676;23.352;2023-06-22T05:47:54;19.75;;;11.63;;
56830;SDS011;42713;42.676;23.352;2023-06-22T05:50:20;21.80;;;12.45;;
56830;SDS011;42713;42.676;23.352;2023-06-22T05:52:45;20.80;;;11.85;;
56830;SDS011;42713;42.676;23.352;2023-06-22T05:55:14;24.92;;;11.77;;
56830;SDS011;42713;42.676;23.352;2023-06-22T05:57:40;18.38;;;11.15;;
56830;SDS011;42713;42.676;23.352;2023-06-22T06:00:06;16.85;;;12.18;;
56830;SDS011;42713;42.676;23.352;2023-06-22T06:02:35;21.60;;;12.07;;
56830;SDS011;42713;42.676;23.352;2023-06-22T06:05:01;17.70;;;11.20;;
56830;SDS011;42713;42.676;23.352;2023-06-22T06:07:28;19.27;;;11.27;;
56830;SDS011;42713;42.676;23.352;2023-06-22T06:09:54;18.92;;;11.63;;
56830;SDS011;42713;42.676;23.352;2023-06-22T06:12:19;17.50;;;11.63;;
56830;SDS011;42713;42.676;23.352;2023-06-22T06:14:45;19.08;;;11.10;;
56830;SDS011;42713;42.676;23.352;2023-06-22T06:17:12;17.70;;;10.40;;
56830;SDS011;42713;42.676;23.352;2023-06-22T06:19:38;15.88;;;10.60;;
56830;SDS011;42713;42.676;23.352;2023-06-22T06:22:03;13.82;;;9.88;;
56830;SDS011;42713;42.676;23.352;2023-06-22T06:24:29;15.77;;;11.60;;
56830;SDS011;42713;42.676;23.352;2023-06-22T06:26:54;21.15;;;11.45;;
56830;SDS011;42713;42.676;23.352;2023-06-22T06:29:20;14.13;;;10.88;;
56830;SDS011;42713;42.676;23.352;2023-06-22T06:31:45;21.27;;;11.77;;
56830;SDS011;42713;42.676;23.352;2023-06-22T06:34:11;24.10;;;10.80;;
56830;SDS011;42713;42.676;23.352;2023-06-22T06:36:36;17.65;;;11.90;;
56830;SDS011;42713;42.676;23.352;2023-06-22T06:39:02;18.92;;;11.45;;
56830;SDS011;42713;42.676;23.352;2023-06-22T06:41:28;16.85;;;11.10;;
56830;SDS011;42713;42.676;23.352;2023-06-22T06:43:54;16.30;;;11.63;;
56830;SDS011;42713;42.676;23.352;2023-06-22T06:46:19;18.88;;;11.05;;
56830;SDS011;42713;42.676;23.352;2023-06-22T06:48:45;14.88;;;9.77;;
56830;SDS011;42713;42.676;23.352;2023-06-22T06:51:11;14.48;;;10.52;;
56830;SDS011;42713;42.676;23.352;2023-06-22T06:53:37;17.33;;;10.88;;
56830;SDS011;42713;42.676;23.352;2023-06-22T06:56:05;17.83;;;10.43;;
56830;SDS011;42713;42.676;23.352;2023-06-22T06:58:31;17.58;;;10.00;;
56830;SDS011;42713;42.676;23.352;2023-06-22T07:00:56;18.73;;;10.52;;
56830;SDS011;42713;42.676;23.352;2023-06-22T07:03:22;18.17;;;10.45;;
56830;SDS011;42713;42.676;23.352;2023-06-22T07:05:47;22.27;;;12.10;;
56830;SDS011;42713;42.676;23.352;2023-06-22T07:08:13;16.85;;;10.77;;
56830;SDS011;42713;42.676;23.352;2023-06-22T07:10:38;15.73;;;10.75;;
56830;SDS011;42713;42.676;23.352;2023-06-22T07:13:04;18.95;;;11.68;;
56830;SDS011;42713;42.676;23.352;2023-06-22T07:15:29;15.50;;;10.88;;
56830;SDS011;42713;42.676;23.352;2023-06-22T07:17:54;16.17;;;10.50;;
56830;SDS011;42713;42.676;23.352;2023-06-22T07:20:20;16.23;;;10.75;;
56830;SDS011;42713;42.676;23.352;2023-06-22T07:22:48;18.20;;;11.07;;
56830;SDS011;42713;42.676;23.352;2023-06-22T07:25:13;16.58;;;11.27;;
56830;SDS011;42713;42.676;23.352;2023-06-22T07:27:46;15.27;;;11.40;;
56830;SDS011;42713;42.676;23.352;2023-06-22T07:30:21;20.63;;;11.63;;
56830;SDS011;42713;42.676;23.352;2023-06-22T07:32:46;19.67;;;11.23;;
56830;SDS011;42713;42.676;23.352;2023-06-22T07:35:12;19.17;;;12.35;;
56830;SDS011;42713;42.676;23.352;2023-06-22T07:37:38;18.33;;;12.30;;
56830;SDS011;42713;42.676;23.352;2023-06-22T07:40:03;20.13;;;11.85;;
56830;SDS011;42713;42.676;23.352;2023-06-22T07:42:31;20.40;;;12.45;;
56830;SDS011;42713;42.676;23.352;2023-06-22T07:44:58;18.50;;;11.65;;
56830;SDS011;42713;42.676;23.352;2023-06-22T07:47:23;18.80;;;11.73;;
56830;SDS011;42713;42.676;23.352;2023-06-22T07:49:54;18.27;;;12.00;;
56830;SDS011;42713;42.676;23.352;2023-06-22T07:52:20;16.45;;;11.32;;
56830;SDS011;42713;42.676;23.352;2023-06-22T07:54:46;23.17;;;12.07;;
56830;SDS011;42713;42.676;23.352;2023-06-22T07:57:12;18.33;;;11.90;;
56830;SDS011;42713;42.676;23.352;2023-06-22T07:59:37;19.58;;;12.48;;
56830;SDS011;42713;42.676;23.352;2023-06-22T08:02:04;17.10;;;12.23;;
56830;SDS011;42713;42.676;23.352;2023-06-22T08:04:30;23.10;;;12.50;;
56830;SDS011;42713;42.676;23.352;2023-06-22T08:06:59;23.60;;;11.63;;
56830;SDS011;42713;42.676;23.352;2023-06-22T08:09:24;19.42;;;11.13;;
56830;SDS011;42713;42.676;23.352;2023-06-22T08:11:50;18.95;;;12.05;;
56830;SDS011;42713;42.676;23.352;2023-06-22T08:14:15;19.90;;;11.65;;
56830;SDS011;42713;42.676;23.352;2023-06-22T08:16:41;20.02;;;10.52;;
56830;SDS011;42713;42.676;23.352;2023-06-22T08:19:07;18.17;;;12.38;;
56830;SDS011;42713;42.676;23.352;2023-06-22T08:21:32;17.00;;;11.88;;
56830;SDS011;42713;42.676;23.352;2023-06-22T08:23:59;19.75;;;12.13;;
56830;SDS011;42713;42.676;23.352;2023-06-22T08:26:24;22.02;;;12.30;;
56830;SDS011;42713;42.676;23.352;2023-06-22T08:28:50;18.83;;;11.70;;
56830;SDS011;42713;42.676;23.352;2023-06-22T08:31:15;19.23;;;12.20;;
56830;SDS011;42713;42.676;23.352;2023-06-22T08:33:40;21.20;;;11.75;;
56830;SDS011;42713;42.676;23.352;2023-06-22T08:36:08;19.02;;;12.05;;
56830;SDS011;42713;42.676;23.352;2023-06-22T08:38:35;16.95;;;11.18;;
56830;SDS011;42713;42.676;23.352;2023-06-22T08:41:01;18.23;;;9.82;;
56830;SDS011;42713;42.676;23.352;2023-06-22T08:43:27;19.40;;;10.02;;
56830;SDS011;42713;42.676;23.352;2023-06-22T08:45:52;20.05;;;10.82;;
56830;SDS011;42713;42.676;23.352;2023-06-22T08:48:17;17.35;;;10.80;;
56830;SDS011;42713;42.676;23.352;2023-06-22T08:50:43;20.23;;;11.90;;
56830;SDS011;42713;42.676;23.352;2023-06-22T08:53:08;18.30;;;11.02;;
56830;SDS011;42713;42.676;23.352;2023-06-22T08:55:34;18.40;;;10.52;;
56830;SDS011;42713;42.676;23.352;2023-06-22T08:57:59;17.75;;;12.15;;
56830;SDS011;42713;42.676;23.352;2023-06-22T09:00:24;21.27;;;12.00;;
56830;SDS011;42713;42.676;23.352;2023-06-22T09:02:50;17.52;;;11.88;;
56830;SDS011;42713;42.676;23.352;2023-06-22T09:05:15;20.48;;;11.82;;
56830;SDS011;42713;42.676;23.352;2023-06-22T09:07:41;18.33;;;11.45;;
56830;SDS011;42713;42.676;23.352;2023-06-22T09:10:07;18.48;;;10.77;;
56830;SDS011;42713;42.676;23.352;2023-06-22T09:12:33;16.95;;;10.88;;
56830;SDS011;42713;42.676;23.352;2023-06-22T09:14:59;17.55;;;10.48;;
56830;SDS011;42713;42.676;23.352;2023-06-22T09:17:25;17.02;;;10.80;;
56830;SDS011;42713;42.676;23.352;2023-06-22T09:19:51;16.75;;;10.95;;
56830;SDS011;42713;42.676;23.352;2023-06-22T09:22:17;13.25;;;9.18;;
56830;SDS011;42713;42.676;23.352;2023-06-22T09:24:42;14.80;;;9.38;;
56830;SDS011;42713;42.676;23.352;2023-06-22T09:27:08;15.18;;;10.15;;
56830;SDS011;42713;42.676;23.352;2023-06-22T09:29:34;16.00;;;9.45;;
56830;SDS011;42713;42.676;23.352;2023-06-22T09:32:02;13.82;;;9.30;;
56830;SDS011;42713;42.676;23.352;2023-06-22T09:34:28;15.40;;;9.80;;
56830;SDS011;42713;42.676;23.352;2023-06-22T09:36:53;17.17;;;10.20;;
56830;SDS011;42713;42.676;23.352;2023-06-22T09:39:18;15.00;;;10.10;;
56830;SDS011;42713;42.676;23.352;2023-06-22T09:41:44;16.40;;;10.00;;
56830;SDS011;42713;42.676;23.352;2023-06-22T09:44:09;12.60;;;9.52;;
56830;SDS011;42713;42.676;23.352;2023-06-22T09:46:35;12.75;;;9.43;;
56830;SDS011;42713;42.676;23.352;2023-06-22T09:49:00;12.68;;;9.20;;
56830;SDS011;42713;42.676;23.352;2023-06-22T09:51:26;17.33;;;10.55;;
56830;SDS011;42713;42.676;23.352;2023-06-22T09:53:52;20.38;;;10.57;;
56830;SDS011;42713;42.676;23.352;2023-06-22T09:56:19;14.52;;;9.85;;
56830;SDS011;42713;42.676;23.352;2023-06-22T09:58:45;17.40;;;10.07;;
56830;SDS011;42713;42.676;23.352;2023-06-22T10:01:11;14.75;;;9.52;;
56830;SDS011;42713;42.676;23.352;2023-06-22T10:03:39;18.38;;;10.30;;
56830;SDS011;42713;42.676;23.352;2023-06-22T10:06:06;17.50;;;9.73;;
56830;SDS011;42713;42.676;23.352;2023-06-22T10:08:33;15.52;;;9.85;;
56830;SDS011;42713;42.676;23.352;2023-06-22T10:10:58;19.33;;;9.20;;
56830;SDS011;42713;42.676;23.352;2023-06-22T10:13:24;16.02;;;9.02;;
56830;SDS011;42713;42.676;23.352;2023-06-22T10:15:49;15.80;;;8.98;;
56830;SDS011;42713;42.676;23.352;2023-06-22T10:18:17;15.45;;;9.43;;
56830;SDS011;42713;42.676;23.352;2023-06-22T10:20:43;14.20;;;8.82;;
56830;SDS011;42713;42.676;23.352;2023-06-22T10:23:10;14.20;;;8.57;;
56830;SDS011;42713;42.676;23.352;2023-06-22T10:25:35;13.50;;;8.45;;
56830;SDS011;42713;42.676;23.352;2023-06-22T10:28:01;13.23;;;8.65;;
56830;SDS011;42713;42.676;23.352;2023-06-22T10:30:26;14.60;;;8.70;;
56830;SDS011;42713;42.676;23.352;2023-06-22T10:32:53;14.25;;;8.10;;
56830;SDS011;42713;42.676;23.352;2023-06-22T10:35:19;12.15;;;8.25;;
56830;SDS011;42713;42.676;23.352;2023-06-22T10:37:44;12.45;;;6.57;;
56830;SDS011;42713;42.676;23.352;2023-06-22T10:40:12;13.52;;;7.05;;
56830;SDS011;42713;42.676;23.352;2023-06-22T10:42:38;13.65;;;7.20;;
56830;SDS011;42713;42.676;23.352;2023-06-22T10:45:06;13.27;;;7.68;;
56830;SDS011;42713;42.676;23.352;2023-06-22T10:47:33;10.90;;;7.80;;
56830;SDS011;42713;42.676;23.352;2023-06-22T10:49:59;11.82;;;7.32;;
56830;SDS011;42713;42.676;23.352;2023-06-22T10:52:24;13.77;;;7.57;;
56830;SDS011;42713;42.676;23.352;2023-06-22T10:54:50;11.02;;;7.10;;
56830;SDS011;42713;42.676;23.352;2023-06-22T10:57:16;11.95;;;7.50;;
56830;SDS011;42713;42.676;23.352;2023-06-22T10:59:41;18.25;;;8.25;;
56830;SDS011;42713;42.676;23.352;2023-06-22T11:02:06;14.07;;;7.25;;
56830;SDS011;42713;42.676;23.352;2023-06-22T11:04:32;12.85;;;7.80;;
56830;SDS011;42713;42.676;23.352;2023-06-22T11:06:57;15.82;;;7.72;;
56830;SDS011;42713;42.676;23.352;2023-06-22T11:09:23;11.13;;;7.28;;
56830;SDS011;42713;42.676;23.352;2023-06-22T11:11:48;12.15;;;7.68;;
56830;SDS011;42713;42.676;23.352;2023-06-22T11:14:16;14.23;;;7.28;;
56830;SDS011;42713;42.676;23.352;2023-06-22T11:16:41;11.38;;;7.30;;
56830;SDS011;42713;42.676;23.352;2023-06-22T11:19:07;11.23;;;6.82;;
56830;SDS011;42713;42.676;23.352;2023-06-22T11:21:33;11.65;;;7.10;;
56830;SDS011;42713;42.676;23.352;2023-06-22T11:23:58;14.15;;;8.10;;
56830;SDS011;42713;42.676;23.352;2023-06-22T11:26:25;12.93;;;7.50;;
56830;SDS011;42713;42.676;23.352;2023-06-22T11:28:53;16.75;;;7.65;;
56830;SDS011;42713;42.676;23.352;2023-06-22T11:31:19;12.38;;;6.75;;
56830;SDS011;42713;42.676;23.352;2023-06-22T11:33:44;11.60;;;7.07;;
56830;SDS011;42713;42.676;23.352;2023-06-22T11:36:11;11.40;;;6.78;;
56830;SDS011;42713;42.676;23.352;2023-06-22T11:38:37;10.73;;;6.45;;
56830;SDS011;42713;42.676;23.352;2023-06-22T11:41:05;13.90;;;6.80;;
56830;SDS011;42713;42.676;23.352;2023-06-22T11:43:31;10.18;;;6.90;;
56830;SDS011;42713;42.676;23.352;2023-06-22T11:45:56;14.73;;;6.78;;
56830;SDS011;42713;42.676;23.352;2023-06-22T11:48:23;12.63;;;6.93;;
56830;SDS011;42713;42.676;23.352;2023-06-22T11:50:49;12.20;;;6.90;;
56830;SDS011;42713;42.676;23.352;2023-06-22T11:53:15;10.38;;;6.47;;
56830;SDS011;42713;42.676;23.352;2023-06-22T11:55:42;10.38;;;6.55;;
56830;SDS011;42713;42.676;23.352;2023-06-22T11:58:08;10.77;;;6.65;;
56830;SDS011;42713;42.676;23.352;2023-06-22T12:00:33;14.10;;;5.95;;
56830;SDS011;42713;42.676;23.352;2023-06-22T12:02:59;10.15;;;6.63;;
56830;SDS011;42713;42.676;23.352;2023-06-22T12:05:25;10.32;;;6.55;;
56830;SDS011;42713;42.676;23.352;2023-06-22T12:07:52;12.88;;;6.40;;
56830;SDS011;42713;42.676;23.352;2023-06-22T12:10:20;12.25;;;6.22;;
56830;SDS011;42713;42.676;23.352;2023-06-22T12:12:46;11.15;;;6.70;;
56830;SDS011;42713;42.676;23.352;2023-06-22T12:15:11;9.68;;;6.70;;
56830;SDS011;42713;42.676;23.352;2023-06-22T12:17:37;12.90;;;6.63;;
56830;SDS011;42713;42.676;23.352;2023-06-22T12:20:03;11.88;;;6.90;;
56830;SDS011;42713;42.676;23.352;2023-06-22T12:22:32;10.15;;;6.68;;
56830;SDS011;42713;42.676;23.352;2023-06-22T12:24:58;11.15;;;6.95;;
56830;SDS011;42713;42.676;23.352;2023-06-22T12:27:24;11.00;;;6.18;;
56830;SDS011;42713;42.676;23.352;2023-06-22T12:29:50;15.38;;;6.90;;
56830;SDS011;42713;42.676;23.352;2023-06-22T12:32:16;12.98;;;6.70;;
56830;SDS011;42713;42.676;23.352;2023-06-22T12:34:45;14.32;;;6.65;;
56830;SDS011;42713;42.676;23.352;2023-06-22T12:37:11;11.45;;;6.97;;
56830;SDS011;42713;42.676;23.352;2023-06-22T12:39:36;12.13;;;6.90;;
56830;SDS011;42713;42.676;23.352;2023-06-22T12:42:01;11.40;;;7.05;;
56830;SDS011;42713;42.676;23.352;2023-06-22T12:44:28;11.18;;;7.10;;
56830;SDS011;42713;42.676;23.352;2023-06-22T12:46:53;12.10;;;7.63;;
56830;SDS011;42713;42.676;23.352;2023-06-22T12:49:19;12.93;;;7.88;;
56830;SDS011;42713;42.676;23.352;2023-06-22T12:51:46;12.13;;;7.72;;
56830;SDS011;42713;42.676;23.352;2023-06-22T12:54:11;11.60;;;7.75;;
56830;SDS011;42713;42.676;23.352;2023-06-22T12:56:37;9.95;;;6.63;;
56830;SDS011;42713;42.676;23.352;2023-06-22T12:59:03;12.88;;;7.05;;
56830;SDS011;42713;42.676;23.352;2023-06-22T13:01:30;13.70;;;8.00;;
56830;SDS011;42713;42.676;23.352;2023-06-22T13:03:57;13.15;;;8.18;;
56830;SDS011;42713;42.676;23.352;2023-06-22T13:06:23;13.25;;;9.05;;
56830;SDS011;42713;42.676;23.352;2023-06-22T13:08:48;15.27;;;8.88;;
56830;SDS011;42713;42.676;23.352;2023-06-22T13:11:13;16.75;;;8.35;;
56830;SDS011;42713;42.676;23.352;2023-06-22T13:13:39;14.60;;;7.60;;
56830;SDS011;42713;42.676;23.352;2023-06-22T13:16:05;13.05;;;7.63;;
56830;SDS011;42713;42.676;23.352;2023-06-22T13:18:30;15.25;;;8.48;;
56830;SDS011;42713;42.676;23.352;2023-06-22T13:20:56;18.33;;;8.18;;
56830;SDS011;42713;42.676;23.352;2023-06-22T13:23:23;16.05;;;8.65;;
56830;SDS011;42713;42.676;23.352;2023-06-22T13:25:48;16.77;;;8.70;;
56830;SDS011;42713;42.676;23.352;2023-06-22T13:28:14;15.60;;;9.35;;
56830;SDS011;42713;42.676;23.352;2023-06-22T13:30:41;19.20;;;9.48;;
56830;SDS011;42713;42.676;23.352;2023-06-22T13:33:06;16.95;;;9.75;;
56830;SDS011;42713;42.676;23.352;2023-06-22T13:35:32;15.30;;;9.32;;
56830;SDS011;42713;42.676;23.352;2023-06-22T13:37:57;14.90;;;9.45;;
56830;SDS011;42713;42.676;23.352;2023-06-22T13:40:23;16.13;;;9.55;;
56830;SDS011;42713;42.676;23.352;2023-06-22T13:42:48;13.52;;;9.10;;
56830;SDS011;42713;42.676;23.352;2023-06-22T13:45:14;18.38;;;9.45;;
56830;SDS011;42713;42.676;23.352;2023-06-22T13:47:42;16.15;;;9.68;;
56830;SDS011;42713;42.676;23.352;2023-06-22T13:50:08;20.85;;;9.27;;
56830;SDS011;42713;42.676;23.352;2023-06-22T13:52:34;18.55;;;9.48;;
56830;SDS011;42713;42.676;23.352;2023-06-22T13:54:59;16.98;;;9.68;;
56830;SDS011;42713;42.676;23.352;2023-06-22T13:57:25;14.43;;;9.52;;
56830;SDS011;42713;42.676;23.352;2023-06-22T13:59:50;14.10;;;9.40;;
56830;SDS011;42713;42.676;23.352;2023-06-22T14:02:16;16.98;;;10.05;;
56830;SDS011;42713;42.676;23.352;2023-06-22T14:04:41;18.15;;;10.93;;
56830;SDS011;42713;42.676;23.352;2023-06-22T14:07:07;22.17;;;10.57;;
56830;SDS011;42713;42.676;23.352;2023-06-22T14:09:32;25.58;;;16.60;;
56830;SDS011;42713;42.676;23.352;2023-06-22T14:11:58;20.05;;;12.82;;
56830;SDS011;42713;42.676;23.352;2023-06-22T14:14:27;17.60;;;10.77;;
56830;SDS011;42713;42.676;23.352;2023-06-22T14:16:53;16.00;;;11.55;;
56830;SDS011;42713;42.676;23.352;2023-06-22T14:19:18;14.68;;;8.95;;